createdAt,value
2017-12-02T00:00:48.171Z,43.53
2017-12-02T00:03:15.665Z,41.88
2017-12-02T00:05:43.143Z,48.53
2017-12-02T00:08:10.606Z,37.08
2017-12-02T00:10:38.095Z,37.83
2017-12-02T00:13:05.563Z,45.08
2017-12-02T00:15:33.051Z,36.33
2017-12-02T00:18:00.527Z,50.47
2017-12-02T00:20:28.019Z,45.28
2017-12-02T00:22:55.498Z,49.03
2017-12-02T00:25:22.966Z,46.33
2017-12-02T00:27:51.218Z,46.40
2017-12-02T00:30:20.198Z,54.42
2017-12-02T00:32:47.690Z,50.83
2017-12-02T00:35:15.926Z,44.17
2017-12-02T00:37:43.412Z,41.88
2017-12-02T00:40:10.896Z,52.45
2017-12-02T00:42:38.367Z,43.90
2017-12-02T00:45:05.858Z,38.58
2017-12-02T00:47:33.375Z,41.37
2017-12-02T00:50:00.855Z,38.33
2017-12-02T00:52:28.330Z,37.42
2017-12-02T00:54:55.823Z,37.90
2017-12-02T00:57:24.084Z,35.20
2017-12-02T00:59:51.566Z,36.20
2017-12-02T01:02:19.038Z,38.53
2017-12-02T01:04:46.530Z,38.75
2017-12-02T01:07:14.038Z,42.85
2017-12-02T01:09:41.502Z,42.92
2017-12-02T01:12:08.985Z,35.20
2017-12-02T01:14:36.463Z,38.50
2017-12-02T01:17:03.963Z,32.63
2017-12-02T01:19:31.435Z,37.45
2017-12-02T01:21:58.922Z,36.95
2017-12-02T01:24:26.427Z,40.85
2017-12-02T01:26:54.666Z,42.47
2017-12-02T01:29:23.658Z,44.78
2017-12-02T01:31:51.155Z,53.75
2017-12-02T01:34:18.734Z,42.03
2017-12-02T01:36:46.214Z,49.67
2017-12-02T01:39:13.722Z,45.90
2017-12-02T01:41:41.255Z,45.88
2017-12-02T01:44:08.735Z,47.53
2017-12-02T01:46:36.994Z,46.03
2017-12-02T01:49:05.231Z,46.65
2017-12-02T01:51:32.733Z,46.85
2017-12-02T01:54:00.995Z,50.05
2017-12-02T01:56:28.554Z,56.03
2017-12-02T01:58:56.034Z,46.45
2017-12-02T02:01:23.534Z,44.80
2017-12-02T02:03:51.021Z,41.95
2017-12-02T02:06:18.507Z,44.38
2017-12-02T02:08:46.039Z,48.03
2017-12-02T02:11:13.595Z,55.12
2017-12-02T02:13:41.067Z,46.55
2017-12-02T02:16:09.338Z,43.35
2017-12-02T02:18:37.586Z,41.75
2017-12-02T02:21:05.053Z,43.67
2017-12-02T02:23:32.537Z,40.42
2017-12-02T02:26:00.771Z,44.05
2017-12-02T02:28:28.262Z,56.80
2017-12-02T02:30:56.518Z,51.13
2017-12-02T02:33:24.002Z,53.75
2017-12-02T02:35:52.240Z,45.55
2017-12-02T02:38:19.715Z,47.13
2017-12-02T02:40:47.962Z,47.28
2017-12-02T02:43:15.453Z,48.10
2017-12-02T02:45:43.678Z,51.33
2017-12-02T02:48:11.152Z,57.75
2017-12-02T02:50:38.647Z,47.40
2017-12-02T02:53:06.873Z,47.05
2017-12-02T02:55:34.343Z,47.92
2017-12-02T02:58:01.830Z,41.05
2017-12-02T03:00:30.087Z,48.17
2017-12-02T03:02:57.562Z,45.65
2017-12-02T03:05:25.820Z,51.47
2017-12-02T03:07:53.284Z,42.45
2017-12-02T03:10:20.746Z,42.85
2017-12-02T03:12:49.042Z,41.42
2017-12-02T03:15:16.526Z,40.92
2017-12-02T03:17:44.005Z,36.15
2017-12-02T03:20:11.472Z,35.60
2017-12-02T03:22:38.972Z,43.53
2017-12-02T03:25:07.198Z,49.95
2017-12-02T03:27:34.667Z,39.58
2017-12-02T03:30:02.920Z,41.83
2017-12-02T03:32:30.399Z,39.45
2017-12-02T03:34:57.959Z,38.03
2017-12-02T03:37:25.440Z,37.35
2017-12-02T03:39:53.677Z,42.22
2017-12-02T03:42:21.156Z,38.30
2017-12-02T03:44:49.402Z,36.90
2017-12-02T03:47:16.871Z,38.72
2017-12-02T03:49:44.360Z,37.15
2017-12-02T03:52:12.596Z,35.85
2017-12-02T03:54:40.078Z,32.10
2017-12-02T03:57:08.337Z,31.30
2017-12-02T03:59:35.802Z,40.72
2017-12-02T04:02:03.295Z,46.97
2017-12-02T04:04:30.759Z,37.35
2017-12-02T04:06:58.246Z,35.90
2017-12-02T04:09:25.731Z,36.03
2017-12-02T04:11:53.214Z,37.80
2017-12-02T04:14:20.707Z,35.90
2017-12-02T04:16:48.175Z,34.17
2017-12-02T04:19:15.704Z,33.92
2017-12-02T04:21:43.166Z,36.50
2017-12-02T04:24:10.630Z,35.67
2017-12-02T04:26:38.125Z,35.65
2017-12-02T04:29:05.603Z,32.58
2017-12-02T04:31:33.863Z,30.70
2017-12-02T04:34:01.325Z,38.08
2017-12-02T04:36:29.594Z,39.85
2017-12-02T04:38:57.057Z,34.92
2017-12-02T04:41:25.316Z,41.65
2017-12-02T04:43:52.807Z,37.92
2017-12-02T04:46:21.034Z,41.55
2017-12-02T04:48:48.519Z,36.45
2017-12-02T04:51:16.834Z,40.83
2017-12-02T04:53:44.309Z,38.58
2017-12-02T04:56:11.782Z,38.58
2017-12-02T04:58:39.255Z,39.58
2017-12-02T05:01:06.747Z,40.60
2017-12-02T05:03:34.210Z,42.55
2017-12-02T05:06:01.698Z,37.28
2017-12-02T05:08:29.161Z,36.17
2017-12-02T05:10:56.630Z,39.47
2017-12-02T05:13:24.117Z,46.80
2017-12-02T05:15:52.355Z,37.78
2017-12-02T05:18:19.841Z,40.25
2017-12-02T05:20:48.099Z,34.75
2017-12-02T05:23:15.713Z,39.15
2017-12-02T05:25:43.186Z,48.22
2017-12-02T05:28:10.670Z,42.62
2017-12-02T05:30:38.150Z,72.62
2017-12-02T05:33:06.378Z,46.60
2017-12-02T05:35:33.866Z,38.60
2017-12-02T05:38:01.346Z,42.58
2017-12-02T05:40:29.587Z,41.60
2017-12-02T05:42:57.066Z,51.55
2017-12-02T05:45:25.310Z,46.83
2017-12-02T05:47:52.810Z,39.70
2017-12-02T05:50:21.051Z,39.97
2017-12-02T05:52:48.516Z,44.45
2017-12-02T05:55:15.995Z,46.53
2017-12-02T05:57:44.232Z,41.72
2017-12-02T06:00:11.711Z,39.45
2017-12-02T06:02:39.948Z,50.00
2017-12-02T06:05:07.428Z,37.05
2017-12-02T06:07:36.418Z,43.92
2017-12-02T06:10:03.894Z,44.78
2017-12-02T06:12:32.123Z,44.47
2017-12-02T06:14:59.606Z,47.75
2017-12-02T06:17:27.095Z,43.30
2017-12-02T06:19:55.319Z,47.78
2017-12-02T06:22:22.790Z,45.28
2017-12-02T06:24:50.272Z,48.63
2017-12-02T06:27:18.534Z,54.13
2017-12-02T06:29:46.010Z,42.53
2017-12-02T06:32:14.434Z,45.90
2017-12-02T06:34:41.922Z,52.17
2017-12-02T06:37:09.392Z,50.35
2017-12-02T06:39:37.622Z,64.50
2017-12-02T06:42:05.110Z,44.50
2017-12-02T06:44:32.601Z,52.08
2017-12-02T06:47:00.067Z,45.75
2017-12-02T06:49:27.540Z,43.53
2017-12-02T06:51:55.031Z,43.08
2017-12-02T06:54:22.507Z,43.50
2017-12-02T06:56:50.766Z,56.67
2017-12-02T06:59:18.235Z,46.78
2017-12-02T07:01:45.712Z,43.22
2017-12-02T07:04:13.195Z,46.55
2017-12-02T07:06:40.678Z,55.72
2017-12-02T07:09:08.203Z,43.33
2017-12-02T07:11:35.655Z,47.28
2017-12-02T07:14:03.146Z,45.65
2017-12-02T07:16:30.614Z,46.03
2017-12-02T07:18:58.099Z,46.10
2017-12-02T07:21:26.326Z,46.15
2017-12-02T07:23:53.798Z,57.80
2017-12-02T07:26:21.278Z,43.20
2017-12-02T07:28:49.530Z,44.25
2017-12-02T07:31:17.071Z,42.25
2017-12-02T07:33:44.550Z,39.83
2017-12-02T07:36:12.786Z,48.28
2017-12-02T07:38:40.271Z,38.75
2017-12-02T07:41:07.799Z,54.63
2017-12-02T07:43:35.271Z,48.08
2017-12-02T07:46:02.747Z,45.00
2017-12-02T07:48:30.238Z,41.97
2017-12-02T07:51:00.182Z,43.33
2017-12-02T07:53:30.007Z,43.20
2017-12-02T07:55:59.632Z,43.87
2017-12-02T07:58:27.123Z,46.70
2017-12-02T08:00:55.831Z,39.85
2017-12-02T08:03:23.366Z,40.60
2017-12-02T08:05:51.614Z,40.53
2017-12-02T08:08:19.082Z,37.05
2017-12-02T08:10:46.574Z,39.88
2017-12-02T08:13:14.032Z,36.65
2017-12-02T08:15:41.521Z,39.35
2017-12-02T08:18:08.999Z,43.92
2017-12-02T08:20:36.691Z,40.05
2017-12-02T08:23:04.938Z,40.20
2017-12-02T08:25:32.414Z,44.03
2017-12-02T08:28:00.669Z,42.42
2017-12-02T08:30:28.190Z,36.45
2017-12-02T08:32:55.670Z,36.03
2017-12-02T08:35:23.155Z,41.03
2017-12-02T08:37:50.622Z,34.55
2017-12-02T08:40:21.226Z,35.08
2017-12-02T08:42:49.715Z,34.22
2017-12-02T08:45:17.983Z,41.58
2017-12-02T08:47:46.132Z,39.65
2017-12-02T08:50:13.615Z,44.78
2017-12-02T08:52:41.191Z,42.88
2017-12-02T08:55:09.438Z,40.15
2017-12-02T08:57:36.918Z,33.42
2017-12-02T09:00:05.186Z,31.58
2017-12-02T09:02:32.642Z,36.72
2017-12-02T09:05:00.128Z,35.80
2017-12-02T09:07:27.619Z,36.78
2017-12-02T09:09:55.094Z,36.85
2017-12-02T09:12:23.703Z,30.58
2017-12-02T09:14:51.974Z,32.40
2017-12-02T09:17:19.646Z,33.35
2017-12-02T09:19:47.766Z,29.55
2017-12-02T09:22:16.888Z,26.92
2017-12-02T09:24:44.990Z,30.83
2017-12-02T09:27:13.145Z,32.72
2017-12-02T09:29:40.611Z,26.60
2017-12-02T09:32:08.867Z,27.80
2017-12-02T09:34:37.843Z,34.33
2017-12-02T09:37:05.329Z,29.30
2017-12-02T09:39:33.575Z,31.83
2017-12-02T09:42:01.055Z,30.95
2017-12-02T09:44:29.300Z,30.37
2017-12-02T09:46:56.767Z,33.00
2017-12-02T09:49:24.354Z,31.50
2017-12-02T09:51:53.348Z,31.90
2017-12-02T09:54:21.587Z,28.60
2017-12-02T09:56:49.112Z,28.27
2017-12-02T09:59:16.610Z,27.40
2017-12-02T10:01:44.094Z,27.10
2017-12-02T10:04:11.578Z,27.47
2017-12-02T10:06:39.053Z,25.37
2017-12-02T10:09:06.543Z,27.13
2017-12-02T10:11:34.007Z,26.20
2017-12-02T10:14:01.495Z,29.17
2017-12-02T10:16:28.975Z,25.70
2017-12-02T10:18:56.460Z,25.17
2017-12-02T10:21:23.931Z,28.55
2017-12-02T10:23:51.419Z,29.50
2017-12-02T10:26:19.665Z,28.35
2017-12-02T10:28:47.920Z,29.73
2017-12-02T10:31:15.386Z,28.50
2017-12-02T10:33:42.875Z,25.30
2017-12-02T10:36:11.112Z,29.33
2017-12-02T10:38:38.603Z,26.87
2017-12-02T10:41:06.855Z,29.85
2017-12-02T10:43:34.323Z,28.65
2017-12-02T10:46:02.579Z,28.67
2017-12-02T10:48:30.067Z,29.58
2017-12-02T10:50:59.114Z,26.87
2017-12-02T10:53:26.734Z,26.17
2017-12-02T10:55:54.218Z,27.13
2017-12-02T10:58:21.690Z,27.35
2017-12-02T11:00:49.164Z,25.60
2017-12-02T11:03:16.638Z,30.65
2017-12-02T11:05:44.878Z,29.83
2017-12-02T11:08:12.363Z,30.60
2017-12-02T11:10:39.835Z,27.23
2017-12-02T11:13:08.087Z,25.75
2017-12-02T11:15:35.563Z,30.05
2017-12-02T11:18:03.810Z,33.88
2017-12-02T11:20:31.302Z,29.87
2017-12-02T11:22:59.531Z,30.95
2017-12-02T11:25:27.035Z,30.65
2017-12-02T11:27:55.263Z,30.73
2017-12-02T11:30:22.754Z,30.33
2017-12-02T11:32:50.990Z,29.25
2017-12-02T11:35:18.477Z,32.05
2017-12-02T11:37:45.951Z,29.55
2017-12-02T11:40:14.205Z,30.98
2017-12-02T11:42:41.703Z,33.67
2017-12-02T11:45:09.190Z,31.85
2017-12-02T11:47:36.658Z,31.50
2017-12-02T11:50:04.133Z,29.15
2017-12-02T11:52:31.614Z,34.72
2017-12-02T11:54:59.936Z,32.55
2017-12-02T11:57:27.409Z,32.35
2017-12-02T11:59:54.882Z,35.08
2017-12-02T12:02:22.380Z,34.20
2017-12-02T12:04:49.859Z,33.97
2017-12-02T12:07:17.347Z,32.95
2017-12-02T12:09:47.556Z,33.97
2017-12-02T12:12:15.049Z,33.55
2017-12-02T12:14:43.308Z,34.58
2017-12-02T12:17:10.769Z,34.05
2017-12-02T12:19:39.025Z,31.85
2017-12-02T12:22:06.506Z,36.97
2017-12-02T12:24:34.762Z,33.83
2017-12-02T12:27:02.238Z,36.15
2017-12-02T12:29:30.525Z,41.35
2017-12-02T12:31:58.766Z,33.80
2017-12-02T12:34:26.256Z,35.95
2017-12-02T12:36:54.503Z,37.33
2017-12-02T12:39:21.975Z,39.05
2017-12-02T12:41:50.225Z,40.45
2017-12-02T12:44:17.701Z,36.13
2017-12-02T12:46:45.175Z,37.25
2017-12-02T12:49:13.418Z,40.88
2017-12-02T12:51:40.919Z,42.45
2017-12-02T12:54:08.387Z,52.00
2017-12-02T12:56:35.858Z,43.92
2017-12-02T12:59:03.347Z,47.80
2017-12-02T13:01:30.839Z,46.95
2017-12-02T13:03:58.879Z,50.05
2017-12-02T13:06:26.344Z,48.95
2017-12-02T13:08:54.594Z,48.55
2017-12-02T13:11:22.069Z,51.30
2017-12-02T13:13:49.559Z,49.80
2017-12-02T13:16:17.049Z,51.15
2017-12-02T13:18:44.542Z,51.63
2017-12-02T13:21:12.026Z,48.75
2017-12-02T13:23:39.510Z,46.20
2017-12-02T13:26:06.986Z,44.70
2017-12-02T13:28:34.462Z,48.05
2017-12-02T13:31:01.939Z,46.17
2017-12-02T13:33:30.190Z,48.80
2017-12-02T13:35:57.703Z,50.67
2017-12-02T13:38:25.187Z,53.35
2017-12-02T13:40:52.675Z,45.38
2017-12-02T13:43:20.912Z,44.95
2017-12-02T13:45:48.390Z,45.12
2017-12-02T13:48:15.887Z,44.15
2017-12-02T13:50:44.220Z,43.08
2017-12-02T13:53:11.698Z,40.15
2017-12-02T13:55:39.950Z,39.22
2017-12-02T13:58:07.463Z,38.47
2017-12-02T14:00:34.935Z,38.42
2017-12-02T14:03:02.422Z,38.47
2017-12-02T14:05:29.907Z,36.95
2017-12-02T14:07:58.158Z,39.08
2017-12-02T14:10:25.642Z,40.75
2017-12-02T14:12:53.897Z,39.10
2017-12-02T14:15:21.395Z,36.75
2017-12-02T14:17:48.872Z,37.08
2017-12-02T14:20:16.355Z,37.25
2017-12-02T14:22:44.613Z,36.60
2017-12-02T14:25:12.335Z,35.88
2017-12-02T14:27:40.595Z,37.22
2017-12-02T14:30:08.839Z,37.00
2017-12-02T14:32:36.324Z,38.78
2017-12-02T14:35:04.583Z,34.58
2017-12-02T14:37:32.070Z,34.85
2017-12-02T14:40:00.364Z,32.95
2017-12-02T14:42:27.853Z,32.70
2017-12-02T14:44:55.342Z,31.73
2017-12-02T14:47:22.813Z,30.58
2017-12-02T14:49:51.078Z,31.50
2017-12-02T14:52:19.311Z,34.10
2017-12-02T14:54:46.798Z,34.92
2017-12-02T14:57:14.279Z,33.35
2017-12-02T14:59:42.522Z,32.70
2017-12-02T15:02:10.003Z,32.25
2017-12-02T15:04:37.474Z,34.28
2017-12-02T15:07:04.974Z,34.65
2017-12-02T15:09:32.471Z,41.10
2017-12-02T15:11:59.993Z,35.03
2017-12-02T15:14:27.538Z,32.90
2017-12-02T15:16:55.035Z,32.70
2017-12-02T15:19:22.503Z,33.42
2017-12-02T15:21:50.759Z,33.20
2017-12-02T15:24:18.235Z,33.85
2017-12-02T15:26:46.480Z,32.92
2017-12-02T15:29:13.994Z,31.40
2017-12-02T15:31:43.140Z,32.63
2017-12-02T15:34:10.637Z,32.25
2017-12-02T15:36:38.971Z,31.87
2017-12-02T15:39:06.442Z,35.97
2017-12-02T15:41:34.705Z,34.50
2017-12-02T15:44:02.976Z,67.82
2017-12-02T15:46:30.470Z,41.33
2017-12-02T15:48:58.709Z,36.10
2017-12-02T15:51:26.277Z,33.97
2017-12-02T15:53:53.778Z,34.35
2017-12-02T15:56:21.259Z,37.63
2017-12-02T15:58:48.748Z,36.90
2017-12-02T16:01:16.246Z,39.03
2017-12-02T16:03:43.722Z,35.58
2017-12-02T16:06:11.211Z,32.65
2017-12-02T16:08:38.731Z,33.88
2017-12-02T16:11:06.198Z,41.35
2017-12-02T16:13:33.691Z,36.75
2017-12-02T16:16:01.194Z,41.00
2017-12-02T16:18:28.709Z,42.92
2017-12-02T16:20:56.195Z,37.58
2017-12-02T16:23:24.423Z,31.30
2017-12-02T16:25:51.928Z,35.70
2017-12-02T16:28:19.412Z,35.92
2017-12-02T16:30:46.964Z,35.38
2017-12-02T16:33:14.551Z,38.15
2017-12-02T16:35:42.857Z,35.85
2017-12-02T16:38:10.331Z,37.20
2017-12-02T16:40:37.830Z,39.97
2017-12-02T16:43:05.300Z,38.50
2017-12-02T16:45:32.838Z,39.45
2017-12-02T16:48:00.969Z,35.58
2017-12-02T16:50:28.551Z,34.60
2017-12-02T16:52:56.039Z,37.35
2017-12-02T16:55:23.522Z,37.78
2017-12-02T16:57:51.035Z,39.05
2017-12-02T17:00:19.525Z,40.10
2017-12-02T17:02:47.018Z,42.92
2017-12-02T17:05:14.499Z,43.03
2017-12-02T17:07:41.998Z,44.67
2017-12-02T17:10:09.483Z,40.80
2017-12-02T17:12:36.965Z,41.55
2017-12-02T17:15:05.302Z,43.70
2017-12-02T17:17:32.806Z,43.55
2017-12-02T17:20:00.293Z,40.78
2017-12-02T17:22:27.775Z,43.20
2017-12-02T17:24:55.267Z,38.45
2017-12-02T17:27:23.509Z,41.03
2017-12-02T17:29:50.988Z,40.50
2017-12-02T17:32:19.246Z,38.95
2017-12-02T17:34:46.724Z,40.65
2017-12-02T17:37:14.979Z,40.05
2017-12-02T17:39:42.507Z,41.67
2017-12-02T17:42:10.000Z,45.40
2017-12-02T17:44:37.483Z,44.33
2017-12-02T17:47:05.018Z,44.13
2017-12-02T17:49:32.482Z,45.88
2017-12-02T17:52:00.734Z,44.85
2017-12-02T17:54:28.222Z,39.70
2017-12-02T17:56:56.489Z,39.65
2017-12-02T17:59:24.737Z,39.50
2017-12-02T18:01:52.240Z,40.67
2017-12-02T18:04:20.471Z,41.58
2017-12-02T18:06:47.953Z,44.17
2017-12-02T18:09:16.194Z,39.13
2017-12-02T18:11:43.728Z,41.53
2017-12-02T18:14:11.206Z,46.03
2017-12-02T18:16:38.687Z,40.60
2017-12-02T18:19:06.175Z,43.13
2017-12-02T18:21:33.670Z,45.75
2017-12-02T18:24:01.131Z,45.40
2017-12-02T18:26:28.598Z,41.97
2017-12-02T18:28:56.144Z,41.85
2017-12-02T18:31:23.623Z,43.45
2017-12-02T18:33:52.630Z,41.17
2017-12-02T18:36:20.877Z,43.97
2017-12-02T18:38:48.370Z,39.78
2017-12-02T18:41:16.625Z,43.47
2017-12-02T18:43:44.147Z,40.12
2017-12-02T18:46:11.655Z,37.92
2017-12-02T18:48:39.922Z,36.50
2017-12-02T18:51:08.216Z,38.40
2017-12-02T18:53:36.804Z,39.08
2017-12-02T18:56:05.042Z,39.50
2017-12-02T18:58:32.680Z,40.72
2017-12-02T19:01:00.150Z,38.63
2017-12-02T19:03:27.643Z,39.50
2017-12-02T19:05:55.928Z,38.42
2017-12-02T19:08:24.155Z,38.53
2017-12-02T19:10:51.639Z,34.47
2017-12-02T19:13:19.886Z,32.60
2017-12-02T19:15:47.408Z,33.83
2017-12-02T19:18:14.880Z,35.38
2017-12-02T19:20:42.371Z,32.55
2017-12-02T19:23:09.909Z,41.55
2017-12-02T19:25:37.387Z,38.28
2017-12-02T19:28:04.905Z,39.33
2017-12-02T19:30:32.385Z,39.13
2017-12-02T19:32:59.875Z,34.40
2017-12-02T19:35:27.343Z,38.63
2017-12-02T19:37:55.586Z,37.58
2017-12-02T19:40:23.066Z,39.53
2017-12-02T19:42:51.318Z,37.38
2017-12-02T19:45:18.805Z,42.65
2017-12-02T19:47:47.078Z,38.08
2017-12-02T19:50:15.326Z,39.83
2017-12-02T19:52:42.807Z,38.45
2017-12-02T19:55:11.087Z,37.90
2017-12-02T19:57:39.331Z,39.65
2017-12-02T20:00:06.816Z,38.80
2017-12-02T20:02:35.145Z,38.20
2017-12-02T20:05:02.624Z,42.92
2017-12-02T20:07:30.094Z,43.63
2017-12-02T20:09:58.359Z,41.60
2017-12-02T20:12:25.923Z,43.75
2017-12-02T20:14:53.435Z,40.75
2017-12-02T20:17:20.910Z,44.25
2017-12-02T20:19:48.486Z,44.20
2017-12-02T20:22:15.955Z,41.90
2017-12-02T20:24:43.431Z,39.50
2017-12-02T20:27:10.990Z,40.35
2017-12-02T20:29:39.231Z,36.50
2017-12-02T20:32:06.818Z,38.13
2017-12-02T20:34:35.090Z,38.42
2017-12-02T20:37:02.593Z,40.90
2017-12-02T20:39:30.055Z,40.50
2017-12-02T20:41:57.547Z,39.40
2017-12-02T20:44:25.025Z,37.63
2017-12-02T20:46:53.287Z,38.67
2017-12-02T20:49:20.749Z,37.92
2017-12-02T20:51:48.398Z,41.80
2017-12-02T20:54:15.878Z,40.22
2017-12-02T20:56:43.361Z,40.15
2017-12-02T20:59:10.849Z,40.50
2017-12-02T21:01:38.315Z,40.70
2017-12-02T21:04:05.794Z,38.88
2017-12-02T21:06:37.311Z,43.13
2017-12-02T21:09:04.802Z,44.75
2017-12-02T21:11:33.037Z,42.72
2017-12-02T21:14:00.615Z,41.80
2017-12-02T21:16:28.111Z,40.03
2017-12-02T21:18:55.691Z,41.70
2017-12-02T21:21:23.189Z,42.25
2017-12-02T21:23:50.670Z,41.10
2017-12-02T21:26:18.923Z,39.92
2017-12-02T21:28:46.401Z,38.10
2017-12-02T21:31:14.648Z,36.97
2017-12-02T21:33:42.140Z,39.65
2017-12-02T21:36:10.399Z,38.53
2017-12-02T21:38:39.191Z,39.40
2017-12-02T21:41:08.663Z,38.63
2017-12-02T21:43:36.133Z,40.10
2017-12-02T21:46:03.614Z,43.87
2017-12-02T21:48:31.854Z,42.95
2017-12-02T21:50:59.337Z,40.75
2017-12-02T21:53:26.835Z,43.60
2017-12-02T21:55:54.345Z,45.05
2017-12-02T21:58:21.843Z,42.00
2017-12-02T22:00:49.393Z,42.42
2017-12-02T22:03:16.862Z,43.35
2017-12-02T22:05:44.339Z,44.75
2017-12-02T22:08:11.811Z,41.33
2017-12-02T22:10:39.298Z,42.17
2017-12-02T22:13:07.561Z,42.22
2017-12-02T22:15:35.057Z,43.70
2017-12-02T22:18:02.560Z,49.50
2017-12-02T22:20:30.026Z,48.83
2017-12-02T22:22:57.510Z,43.13
2017-12-02T22:25:25.750Z,45.35
2017-12-02T22:27:53.250Z,44.03
2017-12-02T22:30:20.728Z,43.40
2017-12-02T22:32:48.226Z,46.70
2017-12-02T22:35:15.694Z,42.05
2017-12-02T22:37:43.944Z,46.13
2017-12-02T22:40:11.429Z,43.20
2017-12-02T22:42:39.684Z,44.78
2017-12-02T22:45:07.207Z,44.38
2017-12-02T22:47:34.692Z,41.53
2017-12-02T22:50:02.163Z,44.55
2017-12-02T22:52:29.631Z,40.75
2017-12-02T22:54:57.899Z,41.00
2017-12-02T22:57:25.376Z,43.85
2017-12-02T22:59:53.640Z,42.17
2017-12-02T23:02:21.875Z,44.53
2017-12-02T23:04:49.374Z,42.50
2017-12-02T23:07:17.640Z,43.95
2017-12-02T23:09:45.130Z,44.80
2017-12-02T23:12:12.616Z,45.53
2017-12-02T23:14:40.096Z,51.33
2017-12-02T23:17:07.575Z,48.67
2017-12-02T23:19:35.893Z,44.35
2017-12-02T23:22:03.375Z,44.75
2017-12-02T23:24:30.842Z,42.38
2017-12-02T23:26:58.332Z,47.50
2017-12-02T23:29:26.574Z,44.28
2017-12-02T23:31:54.061Z,43.15
2017-12-02T23:34:22.322Z,44.78
2017-12-02T23:36:49.801Z,43.10
2017-12-02T23:39:18.047Z,41.65
2017-12-02T23:41:45.515Z,41.65
2017-12-02T23:44:13.766Z,43.50
2017-12-02T23:46:41.239Z,41.42
2017-12-02T23:49:08.727Z,43.35
2017-12-02T23:51:36.218Z,42.62
2017-12-02T23:54:03.677Z,45.70
2017-12-02T23:56:31.166Z,42.55
2017-12-02T23:58:58.633Z,44.28
